ウシュアイア の空港の天気 - METARとTAF

ウシュアイア空港 ( SAWH / USH ) - アルゼンチン ティエラ・デル・フエゴ州、ウシュアイア
飛行場実況気象(Metar)
観測時間05/28 06:00 ART (05/28 09:00 UTC)
風向・風速南西 9m/s
視程8000m
天気現象弱い雨 弱い雪
全天の4割程度の雲 雲底高度 150m
全天を覆う雲 雲底高度 1070m
気温2℃
湿度81%
気圧1007hPa
METARSAWH 280900Z 23018KT 8000 -RASN SCT005 OVC035 02/M01 Q1007
過去の天気等 Google飛行場航空写真 Wunderground天気予報

過去48時間のMETAR

飛行場予報(TAF)
発表時間: 5/28 02:00 ART (5/28 05:00 UTC)
予報対象時間: 28日3時 ART ~ 29日3時 ART
風向・風速南西 13m/s 瞬間風速 18m/s
視程7000m
28日3時 ART ~ 28日8時 ART に一時的に
視程2000m
天気現象強い雪
全天の8割程度の雲 雲底高度 150m
全天を覆う雲 雲底高度 300m
28日15時 ART ~ 28日17時 ART に徐々に
風向・風速南西 10m/s
視程5000m
天気現象
全天の8割程度の雲 雲底高度 300m
全天を覆う雲 雲底高度 910m
TAF SAWH 280500Z 2806/2906 23025G35KT 7000 -SB BKN005 TX03/2818Z TNM01/2811Z
TEMPO 2806/2811 2000 +SN BKN005 OVC010
BECMG 2818/2820 23020KT 5000 SN BKN010 OVC030